Derry, United Kingdom
Current Conditions -  °F | °C
As of 5:50 PM on Sunday 21 Dec 2014 (Local Time) from EGAE Reporting Station
Light Rain Light Rain  
Wind Chill: 54°   Ceiling: 1200
Heat Index: 54°   Visibility: 4mi
Dew Point: 52°   Wind: 23mph
Humidity: 94%   Direction: 230°SW
Pressure: 29.77"   Gusts: NA
Location:  55°N, 7.31°W
Report Text: EGAE 211750Z 23020KT 6000 -RA SCT009 OVC012 12/11 Q1008
Loading
Personal Weather Stations






























Interactive Weather Map New forecast layout! Learn more

10-Day Weather Forecast

Advertisements
Track Severe Weather on mobile